Orto / Ocaso: 06:05 / 18:36 UTC (Datos para LEAX 29-03-2017)

[fuente: ADDS]

METAR:


LEMG 291100Z 12005KT 070V170 CAVOK 19/07 Q1027 NOSIG =
LEGR 291100Z 10005KT 050V160 9999 FEW040 20/06 Q1027 =
LEZL 291100Z 05009KT 020V080 CAVOK 21/12 Q1026 NOSIG =
LEAM 291100Z 21005KT 160V260 CAVOK 18/14 Q1028 =
LEBA 291030Z 09008KT 060V130 CAVOK 19/10 Q1027 =
LEJR 291100Z 25004KT 190V280 CAVOK 21/11 Q1025 =
GEML 291030Z 09005KT 040V150 CAVOK 19/12 Q1027 =
LXGB 291050Z 08013KT 9999 FEW010 17/13 Q1027 NOSIG =

TAFOR:


TAF LEMG 290500Z 2906/3006 29006KT 9999 FEW015 TX20/2913Z TN08/2906Z BECMG 2909/2911 12008KT BECMG 2918/2922 29004KT =
TAF LEGR 290800Z 2909/3009 14009KT 9999 FEW040 TX23/2915Z TN04/3006Z =
TAF LEZL 290800Z 2909/3009 06009KT CAVOK TX25/2915Z TN09/3006Z =
TAF LEAM 290800Z 2909/3009 14005KT 9999 SCT020 TX20/2914Z TN11/3005Z =
TAF LEBA 290800Z 2909/2918 07009KT CAVOK =
TAF LEJR 290500Z 2906/3006 03004KT CAVOK TX24/2915Z TN07/2906Z BECMG 2909/2912 12010KT BECMG 2919/2922 06006KT =
TAF GEML 290800Z 2909/3009 09009KT 9999 SCT015 TX19/2913Z TN12/3006Z PROB40 TEMPO 2909/2911 BKN009 =
TAF LXGB 291028Z 2912/2921 08015KT 9999 FEW012 PROB30 2912/2914 SCT016 PROB30 TEMPO 2912/2916 09016G26KT =

Recuerde que, aunque regularmente actualizada, la información meteorológica aquí presentada no debe ser utilizada para la planificación de vuelos. Si lo desea, puede consultar la información meteorológica adecuada, tanto de aeródromos como en ruta, por las vías oficialmente establecidas en la legislación -> AQUí